Time;durP1;ratioP1;P1;durP2;ratioP2;P2;SDS_P1;SDS_P2;PMS_P1;PMS_P2;Temp;Humidity;BMP_temperature;BMP_pressure;BME280_temperature;BME280_humidity;BME280_pressure;Samples;Min_cycle;Max_cycle;Signal;HPM_P1;HPM_P2
2021/06/13 00:00:27;;;;;;;;;5.00;5.00;;;;;19.62;54.25;102206.28;5070395;27;45456;-64
2021/06/13 00:02:53;;;;;;;;;5.25;5.25;;;;;19.59;54.61;102203.94;5069428;27;46201;-63
2021/06/13 00:05:18;;;;;;;;;5.75;5.25;;;;;19.54;54.32;102200.97;5070323;27;45481;-64
2021/06/13 00:07:44;;;;;;;;;5.50;5.50;;;;;19.50;54.37;102197.78;5073886;27;45530;-65
2021/06/13 00:10:11;;;;;;;;;6.00;6.00;;;;;19.47;54.55;102198.13;5073260;27;45462;-63
2021/06/13 00:12:37;;;;;;;;;5.75;5.50;;;;;19.44;54.82;102206.53;5069153;27;46293;-63
2021/06/13 00:15:05;;;;;;;;;6.75;6.75;;;;;19.40;54.92;102205.19;5076452;27;45471;-64
2021/06/13 00:17:30;;;;;;;;;7.00;6.75;;;;;19.38;55.30;102203.69;5072055;27;49842;-65
2021/06/13 00:19:56;;;;;;;;;7.50;7.50;;;;;19.33;55.22;102196.16;5076684;27;45514;-65
2021/06/13 00:22:21;;;;;;;;;6.75;6.00;;;;;19.29;57.14;102200.19;5071835;27;46783;-64
2021/06/13 00:24:46;;;;;;;;;6.25;5.00;;;;;19.20;56.11;102199.38;5068392;27;45408;-63
2021/06/13 00:27:12;;;;;;;;;7.50;6.25;;;;;19.19;55.66;102196.84;5072589;27;45528;-63
2021/06/13 00:29:37;;;;;;;;;7.75;6.75;;;;;19.16;56.02;102190.00;5067091;27;45586;-63
2021/06/13 00:32:03;;;;;;;;;6.00;5.25;;;;;19.12;56.05;102189.50;5074055;27;46343;-63
2021/06/13 00:34:28;;;;;;;;;6.00;6.00;;;;;19.12;55.97;102192.19;5070518;27;45559;-64
2021/06/13 00:36:53;;;;;;;;;8.25;6.50;;;;;19.11;56.26;102185.16;5078858;27;45803;-63
2021/06/13 00:39:19;;;;;;;;;8.00;7.25;;;;;19.11;55.42;102193.22;5067290;27;45618;-63
2021/06/13 00:41:45;;;;;;;;;5.75;5.75;;;;;19.09;56.30;102197.91;5072318;27;45509;-62
2021/06/13 00:44:10;;;;;;;;;6.75;6.00;;;;;19.08;56.52;102190.00;5073100;27;45351;-65
2021/06/13 00:46:36;;;;;;;;;5.00;5.00;;;;;19.08;56.93;102196.19;5073682;27;45419;-63
2021/06/13 00:49:01;;;;;;;;;8.00;7.25;;;;;19.07;56.37;102193.72;5070212;27;45480;-63
2021/06/13 00:51:27;;;;;;;;;8.25;6.75;;;;;19.05;56.56;102193.88;5078966;27;45535;-64
2021/06/13 00:53:52;;;;;;;;;8.00;7.75;;;;;19.02;56.75;102193.38;5069318;27;45463;-64
2021/06/13 00:56:18;;;;;;;;;6.75;6.00;;;;;19.00;56.68;102193.53;5070807;27;47285;-63
2021/06/13 00:58:44;;;;;;;;;5.50;5.00;;;;;18.97;56.65;102187.72;5070945;27;45569;-64
2021/06/13 01:01:10;;;;;;;;;6.25;6.00;;;;;18.95;56.75;102195.91;5068298;27;45560;-65
2021/06/13 01:03:35;;;;;;;;;5.50;5.50;;;;;18.93;56.67;102192.53;5070893;27;45690;-65
2021/06/13 01:06:01;;;;;;;;;7.75;7.00;;;;;18.92;56.85;102193.56;5068000;27;45539;-63
2021/06/13 01:08:42;;;;;;;;;7.00;7.00;;;;;18.87;56.85;102183.34;5075736;27;45512;-66
2021/06/13 01:11:22;;;;;;;;;7.00;7.00;;;;;18.83;57.28;102186.53;5066675;27;45456;-65
2021/06/13 01:13:50;;;;;;;;;7.25;6.00;;;;;18.81;57.09;102188.53;5090652;27;45632;-63
2021/06/13 01:16:31;;;;;;;;;7.00;7.00;;;;;18.79;57.59;102186.06;5075674;27;45454;-65
2021/06/13 01:19:03;;;;;;;;;10.00;9.00;;;;;18.78;57.23;102194.25;5072017;27;45771;-64
2021/06/13 01:21:34;;;;;;;;;6.25;5.50;;;;;18.75;57.54;102200.75;5063226;27;46539;-65
2021/06/13 01:24:18;;;;;;;;;7.75;5.25;;;;;18.72;57.62;102195.72;5070621;27;45525;-63
2021/06/13 01:27:07;;;;;;;;;10.00;7.00;;;;;18.68;57.46;102199.72;5073975;27;45657;-63
2021/06/13 01:29:38;;;;;;;;;8.25;7.25;;;;;18.66;57.50;102196.38;5072577;27;45282;-65
2021/06/13 01:32:21;;;;;;;;;7.75;7.75;;;;;18.63;57.35;102196.72;5071395;27;47339;-65
2021/06/13 01:34:54;;;;;;;;;9.75;7.50;;;;;18.61;58.42;102199.56;5069187;27;45569;-64
2021/06/13 01:37:23;;;;;;;;;7.75;7.75;;;;;18.57;57.75;102208.94;5069094;27;45519;-65
2021/06/13 01:39:53;;;;;;;;;7.25;7.25;;;;;18.55;57.78;102204.75;5067951;27;53020;-63
2021/06/13 01:42:19;;;;;;;;;7.50;7.50;;;;;18.52;57.74;102210.44;5067526;27;46682;-63
2021/06/13 01:44:47;;;;;;;;;8.75;7.25;;;;;18.50;57.84;102207.94;5074442;27;45390;-63
2021/06/13 01:47:14;;;;;;;;;9.00;8.00;;;;;18.48;57.78;102212.59;5067570;27;45529;-63
2021/06/13 01:49:41;;;;;;;;;7.00;6.50;;;;;18.46;58.99;102209.25;5068540;27;45464;-65
2021/06/13 01:52:09;;;;;;;;;8.50;7.00;;;;;18.43;58.18;102207.75;5067108;27;45480;-64
2021/06/13 01:54:35;;;;;;;;;6.75;6.00;;;;;18.39;58.24;102210.91;5068952;27;45850;-63
2021/06/13 01:57:01;;;;;;;;;7.50;7.00;;;;;18.40;58.55;102213.44;5069799;27;45466;-63
2021/06/13 01:59:28;;;;;;;;;7.50;6.00;;;;;18.35;58.49;102205.06;5070154;27;45487;-63
2021/06/13 02:01:58;;;;;;;;;7.00;7.00;;;;;18.30;58.97;102215.44;5072145;27;46391;-63
2021/06/13 02:04:28;;;;;;;;;8.50;8.50;;;;;18.26;58.49;102217.59;5072900;27;45727;-64
2021/06/13 02:06:58;;;;;;;;;11.00;8.00;;;;;18.23;58.89;102222.44;5068308;27;45711;-65
2021/06/13 02:09:28;;;;;;;;;9.50;9.00;;;;;18.19;59.12;102227.28;5073495;27;45433;-64
2021/06/13 02:11:56;;;;;;;;;7.25;7.25;;;;;18.17;59.32;102221.25;5064114;27;46592;-63
2021/06/13 02:14:24;;;;;;;;;9.00;8.50;;;;;18.16;59.29;102227.59;5070346;27;45909;-65
2021/06/13 02:16:51;;;;;;;;;10.00;8.00;;;;;18.15;59.30;102228.63;5081181;27;45744;-63
2021/06/13 02:19:20;;;;;;;;;6.00;6.00;;;;;18.14;59.33;102234.94;5073573;27;45455;-63
2021/06/13 02:21:48;;;;;;;;;9.25;7.50;;;;;18.10;61.92;102236.28;5075163;27;47252;-63
2021/06/13 02:24:17;;;;;;;;;7.50;6.00;;;;;18.03;59.74;102232.59;5077057;27;45565;-65
2021/06/13 02:26:44;;;;;;;;;7.75;7.00;;;;;18.00;59.42;102239.09;5069661;27;45535;-63
2021/06/13 02:29:11;;;;;;;;;9.75;7.75;;;;;18.00;59.37;102239.09;5069418;27;45543;-64
2021/06/13 02:31:40;;;;;;;;;6.50;6.50;;;;;17.97;59.61;102238.56;5075698;27;48388;-63
2021/06/13 02:34:07;;;;;;;;;8.25;7.75;;;;;17.97;59.67;102246.59;5075333;27;45479;-63
2021/06/13 02:36:33;;;;;;;;;8.50;8.50;;;;;17.94;61.27;102238.91;5071517;27;45529;-63
2021/06/13 02:39:00;;;;;;;;;8.00;7.25;;;;;17.86;60.00;102238.88;5075896;27;45407;-64
2021/06/13 02:41:25;;;;;;;;;7.50;7.00;;;;;17.82;60.27;102249.88;5072899;27;46442;-65
2021/06/13 02:43:51;;;;;;;;;8.00;8.00;;;;;17.80;60.17;102237.66;5072803;27;45463;-63
2021/06/13 02:46:16;;;;;;;;;10.00;8.00;;;;;17.80;60.13;102238.53;5072075;27;45587;-65
2021/06/13 02:48:42;;;;;;;;;8.75;8.50;;;;;17.78;60.23;102240.50;5074743;27;45519;-65
2021/06/13 02:51:08;;;;;;;;;9.75;8.25;;;;;17.78;60.22;102245.84;5072156;27;45427;-64
2021/06/13 02:53:56;;;;;;;;;8.00;7.00;;;;;17.74;60.23;102239.13;5071411;27;45504;-65
2021/06/13 02:56:41;;;;;;;;;10.75;8.00;;;;;17.73;60.18;102242.81;5075409;27;45470;-65
2021/06/13 02:59:12;;;;;;;;;12.25;8.00;;;;;17.71;60.11;102252.81;5076686;27;45534;-63
2021/06/13 03:01:42;;;;;;;;;11.00;9.00;;;;;17.68;60.40;102255.81;5074860;27;46710;-65
2021/06/13 03:04:10;;;;;;;;;10.25;8.25;;;;;17.68;60.24;102265.66;5068560;27;45629;-63
2021/06/13 03:06:37;;;;;;;;;11.00;9.00;;;;;17.65;59.92;102265.97;5072151;27;45519;-63
2021/06/13 03:09:03;;;;;;;;;8.50;8.00;;;;;17.64;60.07;102257.13;5070873;27;45487;-65
2021/06/13 03:11:29;;;;;;;;;12.75;9.75;;;;;17.62;59.97;102275.16;5076523;27;46872;-65
2021/06/13 03:13:57;;;;;;;;;10.00;8.00;;;;;17.60;59.96;102269.94;5078866;27;45927;-64
2021/06/13 03:16:23;;;;;;;;;7.50;7.50;;;;;17.58;59.86;102268.44;5066789;27;45495;-64
2021/06/13 03:18:50;;;;;;;;;8.50;6.00;;;;;17.54;59.98;102275.13;5069722;27;45410;-63
2021/06/13 03:21:18;;;;;;;;;11.00;9.00;;;;;17.53;60.48;102268.06;5069376;27;45459;-63
2021/06/13 03:23:44;;;;;;;;;10.50;8.50;;;;;17.52;60.42;102279.78;5073635;27;45525;-65
2021/06/13 03:26:11;;;;;;;;;11.25;7.25;;;;;17.51;60.39;102276.28;5073667;27;45441;-65
2021/06/13 03:28:37;;;;;;;;;8.25;8.25;;;;;17.49;59.98;102280.09;5075737;27;45526;-63
2021/06/13 03:31:04;;;;;;;;;11.50;9.00;;;;;17.50;60.43;102282.59;5070611;27;46061;-64
2021/06/13 03:33:32;;;;;;;;;7.50;7.25;;;;;17.49;60.26;102277.41;5069204;27;45405;-63
2021/06/13 03:35:59;;;;;;;;;6.25;6.25;;;;;17.47;60.02;102276.75;5073183;27;45522;-65
2021/06/13 03:38:28;;;;;;;;;10.00;9.50;;;;;17.45;60.35;102276.06;5069885;27;45670;-64
2021/06/13 03:40:57;;;;;;;;;7.75;7.00;;;;;17.46;60.44;102280.38;5078758;27;45885;-65
2021/06/13 03:43:22;;;;;;;;;9.00;8.50;;;;;17.44;59.95;102287.75;5074010;27;45531;-65
2021/06/13 03:45:49;;;;;;;;;7.25;7.25;;;;;17.44;61.11;102280.56;5072757;27;45558;-64
2021/06/13 03:48:17;;;;;;;;;8.50;8.00;;;;;17.39;60.66;102283.69;5063841;27;45611;-65
2021/06/13 03:50:44;;;;;;;;;11.50;7.50;;;;;17.38;60.59;102281.19;5069238;27;46109;-65
2021/06/13 03:53:10;;;;;;;;;8.50;7.25;;;;;17.37;60.56;102279.50;5074881;27;45429;-65
2021/06/13 03:55:36;;;;;;;;;9.75;7.75;;;;;17.38;60.77;102286.53;5071327;27;45448;-63
2021/06/13 03:58:01;;;;;;;;;8.00;8.00;;;;;17.36;60.42;102286.69;5074745;27;45534;-64
2021/06/13 04:00:30;;;;;;;;;11.00;7.50;;;;;17.37;60.26;102279.50;5068165;27;46624;-63
2021/06/13 04:02:57;;;;;;;;;8.50;8.25;;;;;17.36;60.59;102278.69;5069755;27;45512;-65
2021/06/13 04:05:23;;;;;;;;;9.25;8.50;;;;;17.36;60.45;102288.53;5069509;27;45397;-64
2021/06/13 04:07:48;;;;;;;;;12.00;10.50;;;;;17.34;60.26;102291.34;5080910;27;45896;-65
2021/06/13 04:10:17;;;;;;;;;9.75;9.00;;;;;17.34;60.34;102288.69;5068157;27;45582;-63
2021/06/13 04:12:46;;;;;;;;;12.75;10.00;;;;;17.36;60.57;102292.03;5069617;27;45501;-63
2021/06/13 04:15:11;;;;;;;;;12.50;10.75;;;;;17.38;60.35;102299.88;5074255;27;45575;-64
2021/06/13 04:17:38;;;;;;;;;10.75;9.75;;;;;17.39;60.36;102299.75;5068437;27;45442;-64
2021/06/13 04:20:06;;;;;;;;;9.00;9.00;;;;;17.42;60.18;102314.63;5069486;27;46365;-63
2021/06/13 04:22:32;;;;;;;;;12.00;10.00;;;;;17.44;60.39;102309.13;5071041;27;45626;-65
2021/06/13 04:25:01;;;;;;;;;10.00;10.00;;;;;17.48;60.14;102306.00;5068503;27;45460;-65
2021/06/13 04:27:29;;;;;;;;;10.00;8.00;;;;;17.52;60.32;102317.19;5070533;27;45446;-65
2021/06/13 04:30:00;;;;;;;;;9.75;9.50;;;;;17.53;59.70;102316.19;5072441;27;47129;-65
2021/06/13 04:32:25;;;;;;;;;10.25;8.75;;;;;17.52;59.99;102317.19;5064776;27;45699;-63
2021/06/13 04:34:51;;;;;;;;;8.50;8.00;;;;;17.55;59.51;102315.03;5080514;27;45537;-64
2021/06/13 04:37:17;;;;;;;;;10.75;10.75;;;;;17.60;59.88;102322.59;5068878;27;45414;-64
2021/06/13 04:39:43;;;;;;;;;11.25;9.25;;;;;17.61;59.45;102327.78;5067160;27;46168;-65
2021/06/13 04:42:09;;;;;;;;;11.00;9.00;;;;;17.63;59.49;102322.28;5067515;27;45783;-65
2021/06/13 04:44:36;;;;;;;;;10.00;8.25;;;;;17.67;59.70;102325.47;5069568;27;45581;-63
2021/06/13 04:47:04;;;;;;;;;10.50;9.00;;;;;17.66;59.68;102321.13;5070313;27;45604;-63
2021/06/13 04:49:29;;;;;;;;;8.25;8.25;;;;;17.67;59.42;102322.81;5071062;27;45356;-63
2021/06/13 04:51:57;;;;;;;;;9.00;9.00;;;;;17.69;59.61;102332.34;5069499;27;45418;-63
2021/06/13 04:54:39;;;;;;;;;11.75;9.50;;;;;17.73;59.44;102331.03;5061917;27;45565;-65
2021/06/13 04:57:21;;;;;;;;;8.75;8.00;;;;;17.78;58.88;102336.75;5067912;27;45504;-64
2021/06/13 04:59:46;;;;;;;;;10.75;9.00;;;;;17.82;58.92;102332.78;5067780;27;45430;-64
2021/06/13 05:02:14;;;;;;;;;10.75;10.00;;;;;17.78;59.07;102331.41;5069686;27;45997;-63
2021/06/13 05:04:39;;;;;;;;;11.50;9.50;;;;;17.78;59.12;102339.44;5070429;27;45487;-64
2021/06/13 05:07:05;;;;;;;;;13.00;10.25;;;;;17.79;58.87;102335.75;5069393;27;45500;-63
2021/06/13 05:09:31;;;;;;;;;11.00;8.25;;;;;17.84;58.69;102337.97;5068598;27;45554;-64
2021/06/13 05:11:57;;;;;;;;;9.25;9.25;;;;;17.87;59.31;102336.81;5069600;27;45506;-64
2021/06/13 05:14:22;;;;;;;;;9.25;8.25;;;;;17.90;58.63;102331.16;5069587;27;45470;-63
2021/06/13 05:16:48;;;;;;;;;10.25;9.75;;;;;17.95;58.43;102342.22;5071709;27;45386;-65
2021/06/13 05:19:13;;;;;;;;;13.75;9.75;;;;;18.00;58.06;102337.22;5070826;27;45518;-63
2021/06/13 05:21:39;;;;;;;;;8.50;7.25;;;;;18.04;58.01;102335.91;5069350;27;45513;-64
2021/06/13 05:24:04;;;;;;;;;12.00;10.00;;;;;18.07;57.88;102340.94;5069097;27;45423;-64
2021/06/13 05:26:30;;;;;;;;;10.75;9.00;;;;;18.11;58.12;102346.81;5069166;27;45392;-64
2021/06/13 05:28:56;;;;;;;;;12.25;10.50;;;;;18.18;58.09;102353.22;5074441;27;45869;-64
2021/06/13 05:31:22;;;;;;;;;10.75;9.50;;;;;18.22;58.45;102355.41;5070421;27;45444;-63
2021/06/13 05:33:48;;;;;;;;;10.25;9.50;;;;;18.24;57.42;102356.06;5069131;27;45519;-63
2021/06/13 05:36:14;;;;;;;;;10.50;9.00;;;;;18.26;57.79;102358.59;5069029;27;46029;-65
2021/06/13 05:38:41;;;;;;;;;9.50;9.50;;;;;18.31;57.28;102358.09;5070430;27;46463;-63
2021/06/13 05:41:08;;;;;;;;;12.50;9.75;;;;;18.36;57.13;102361.97;5060569;27;45946;-64
2021/06/13 05:43:33;;;;;;;;;10.75;7.00;;;;;18.48;56.84;102368.72;5071908;27;45778;-63
2021/06/13 05:46:01;;;;;;;;;11.00;9.25;;;;;18.61;57.08;102365.56;5069244;27;46118;-63
2021/06/13 05:48:27;;;;;;;;;13.25;9.00;;;;;18.73;56.53;102363.44;5068510;27;47402;-64
2021/06/13 05:50:52;;;;;;;;;11.50;10.25;;;;;18.85;56.18;102366.66;5065108;27;45402;-64
2021/06/13 05:53:18;;;;;;;;;11.00;9.25;;;;;18.91;55.82;102374.03;5068730;27;46032;-63
2021/06/13 05:55:43;;;;;;;;;10.75;9.00;;;;;18.96;55.58;102369.03;5086681;27;45381;-63
2021/06/13 05:58:09;;;;;;;;;8.50;8.50;;;;;19.01;55.11;102368.53;5066488;27;45600;-63
2021/06/13 06:00:36;;;;;;;;;10.50;10.25;;;;;19.02;55.23;102372.91;5068332;27;45442;-64
2021/06/13 06:03:03;;;;;;;;;7.00;7.00;;;;;19.07;54.88;102375.91;5068774;27;45427;-65
2021/06/13 06:05:30;;;;;;;;;9.25;9.25;;;;;19.05;55.47;102375.25;5069090;27;45585;-64
2021/06/13 06:07:56;;;;;;;;;9.50;8.50;;;;;19.07;54.69;102378.59;5071954;27;46577;-63
2021/06/13 06:10:23;;;;;;;;;9.25;8.25;;;;;19.09;53.99;102382.78;5068615;27;45487;-63
2021/06/13 06:12:48;;;;;;;;;9.00;9.00;;;;;19.10;54.45;102383.63;5068194;27;45322;-63
2021/06/13 06:15:16;;;;;;;;;9.00;9.00;;;;;19.15;53.91;102388.50;5068582;27;45414;-65
2021/06/13 06:17:43;;;;;;;;;10.00;8.00;;;;;19.19;54.16;102390.66;5068038;27;45877;-65
2021/06/13 06:20:09;;;;;;;;;9.25;8.75;;;;;19.24;54.10;102390.19;5069163;27;45436;-64
2021/06/13 06:22:35;;;;;;;;;8.75;7.25;;;;;19.28;53.80;102381.59;5070862;27;45566;-64
2021/06/13 06:25:01;;;;;;;;;8.00;6.00;;;;;19.32;53.60;102384.81;5065338;27;45652;-64
2021/06/13 06:27:26;;;;;;;;;7.50;6.75;;;;;19.33;52.98;102389.16;5068292;27;47098;-63
2021/06/13 06:29:52;;;;;;;;;8.00;6.50;;;;;19.33;52.88;102391.84;5068439;27;45516;-62
2021/06/13 06:32:17;;;;;;;;;10.25;8.00;;;;;19.38;53.26;102389.50;5070907;27;45535;-64
2021/06/13 06:34:42;;;;;;;;;6.75;6.00;;;;;19.48;52.74;102387.47;5070880;27;45357;-63
2021/06/13 06:37:08;;;;;;;;;6.50;5.75;;;;;19.62;52.34;102398.53;5068349;27;53141;-63
2021/06/13 06:39:33;;;;;;;;;5.75;5.75;;;;;19.71;51.85;102389.53;5067686;27;45749;-65
2021/06/13 06:41:59;;;;;;;;;9.50;8.00;;;;;19.81;52.10;102400.91;5068599;27;45364;-63
2021/06/13 06:44:24;;;;;;;;;7.00;7.00;;;;;19.92;51.97;102408.56;5066485;27;45454;-64
2021/06/13 06:46:50;;;;;;;;;10.50;8.00;;;;;20.01;51.32;102400.53;5070931;27;46025;-63
2021/06/13 06:49:15;;;;;;;;;6.50;6.50;;;;;20.09;50.72;102395.97;5067676;27;45417;-64
2021/06/13 06:51:41;;;;;;;;;8.25;8.00;;;;;20.15;51.29;102391.75;5068572;27;45588;-64
2021/06/13 06:54:06;;;;;;;;;5.50;5.50;;;;;20.19;51.00;102399.28;5068044;27;45419;-65
2021/06/13 06:56:31;;;;;;;;;10.25;8.25;;;;;20.26;51.04;102395.91;5075906;27;45397;-64
2021/06/13 06:58:57;;;;;;;;;9.25;7.50;;;;;20.36;50.66;102394.69;5072984;27;45451;-64
2021/06/13 07:01:23;;;;;;;;;5.25;5.25;;;;;20.47;49.99;102389.94;5072922;27;45617;-63
2021/06/13 07:03:49;;;;;;;;;7.50;6.75;;;;;20.56;49.63;102392.44;5071378;27;45632;-65
2021/06/13 07:06:15;;;;;;;;;7.00;7.00;;;;;20.68;48.60;102394.75;5071279;27;46427;-63
2021/06/13 07:08:40;;;;;;;;;5.00;5.00;;;;;20.77;48.83;102401.75;5070887;27;45442;-64
2021/06/13 07:11:06;;;;;;;;;7.25;6.75;;;;;20.88;48.79;102397.84;5071895;27;45422;-65
2021/06/13 07:13:32;;;;;;;;;6.50;6.50;;;;;21.02;47.59;102399.75;5075550;27;45609;-63
2021/06/13 07:15:58;;;;;;;;;7.75;6.50;;;;;21.08;47.13;102401.72;5071062;27;46693;-63
2021/06/13 07:18:23;;;;;;;;;6.00;6.00;;;;;21.04;46.69;102387.81;5071158;27;45463;-65
2021/06/13 07:20:49;;;;;;;;;4.00;3.50;;;;;21.03;44.78;102407.63;5071611;27;45566;-64
2021/06/13 07:23:14;;;;;;;;;5.00;5.00;;;;;21.10;46.12;102405.06;5071507;27;45453;-64
2021/06/13 07:25:40;;;;;;;;;6.25;6.25;;;;;21.12;44.18;102408.44;5073452;27;45388;-65
2021/06/13 07:28:06;;;;;;;;;5.00;5.00;;;;;21.10;44.41;102402.38;5070317;27;45428;-63
2021/06/13 07:30:33;;;;;;;;;5.00;4.75;;;;;21.11;45.84;102405.91;5072855;27;45575;-64
2021/06/13 07:33:01;;;;;;;;;7.00;7.00;;;;;21.29;46.23;102402.91;5070083;27;45397;-63
2021/06/13 07:35:26;;;;;;;;;7.00;6.50;;;;;21.54;43.75;102417.88;5065461;27;48440;-65
2021/06/13 07:37:51;;;;;;;;;5.00;5.00;;;;;21.65;43.95;102419.28;5073390;27;45607;-65
2021/06/13 07:40:19;;;;;;;;;4.00;4.00;;;;;21.80;45.34;102419.31;5069988;27;45513;-63
2021/06/13 07:42:45;;;;;;;;;5.00;4.50;;;;;22.15;45.38;102411.53;5073506;27;45379;-65
2021/06/13 07:45:12;;;;;;;;;6.00;5.50;;;;;22.51;44.95;102408.94;5069731;27;46635;-64
2021/06/13 07:47:38;;;;;;;;;5.75;5.75;;;;;22.91;43.17;102412.94;5070959;27;45700;-64
2021/06/13 07:50:06;;;;;;;;;5.00;5.00;;;;;23.20;42.80;102413.06;5071006;27;45549;-65
2021/06/13 07:52:32;;;;;;;;;5.25;5.25;;;;;23.52;42.91;102409.00;5072621;27;45498;-63
2021/06/13 07:54:57;;;;;;;;;6.50;6.50;;;;;23.78;41.72;102398.41;5069995;27;45838;-65
2021/06/13 07:57:23;;;;;;;;;5.75;5.00;;;;;24.40;40.72;102404.78;5070878;27;45478;-63
2021/06/13 07:59:49;;;;;;;;;5.50;5.50;;;;;27.17;38.17;102392.16;5070590;27;45567;-65
2021/06/13 08:02:14;;;;;;;;;6.00;6.00;;;;;30.62;32.76;102396.38;5070674;27;45434;-63
2021/06/13 08:04:47;;;;;;;;;7.75;5.00;;;;;33.51;30.09;102397.97;5072885;27;46001;-64
2021/06/13 08:07:12;;;;;;;;;6.00;6.00;;;;;35.91;22.18;102410.47;5068953;27;45389;-65
2021/06/13 08:09:38;;;;;;;;;5.00;5.00;;;;;37.09;23.74;102407.03;5064017;27;45645;-65
2021/06/13 08:12:04;;;;;;;;;6.00;6.00;;;;;38.34;24.42;102404.25;5070635;27;45432;-65
2021/06/13 08:14:29;;;;;;;;;5.25;4.25;;;;;39.88;22.43;102401.63;5070025;27;46505;-63
2021/06/13 08:16:54;;;;;;;;;6.50;5.00;;;;;40.51;20.74;102406.31;5073436;27;45540;-65
2021/06/13 08:19:20;;;;;;;;;4.75;4.75;;;;;40.88;21.07;102412.66;5069495;27;45414;-65
2021/06/13 08:21:45;;;;;;;;;2.75;2.75;;;;;41.47;18.71;102406.91;5070465;27;45435;-65
2021/06/13 08:24:11;;;;;;;;;5.00;3.50;;;;;42.42;16.93;102420.25;5070578;27;46249;-65
2021/06/13 08:26:36;;;;;;;;;4.50;2.75;;;;;42.71;13.79;102410.44;5070919;27;45378;-63
2021/06/13 08:29:02;;;;;;;;;3.75;3.75;;;;;42.64;14.54;102426.78;5071398;27;45503;-64
2021/06/13 08:31:29;;;;;;;;;2.25;2.25;;;;;42.95;16.98;102421.03;5072199;27;45512;-65
2021/06/13 08:33:56;;;;;;;;;3.75;2.75;;;;;43.48;13.84;102430.03;5069847;27;46578;-64
2021/06/13 08:36:22;;;;;;;;;3.00;3.00;;;;;44.14;16.31;102418.38;5069736;27;46459;-64
2021/06/13 08:38:55;;;;;;;;;5.25;2.75;;;;;44.69;16.41;102422.00;5069970;27;45440;-65
2021/06/13 08:41:21;;;;;;;;;2.00;2.00;;;;;45.36;16.22;102417.22;5069868;27;45802;-66
2021/06/13 08:43:48;;;;;;;;;1.25;1.25;;;;;45.94;15.41;102414.25;5078714;27;45818;-65
2021/06/13 08:46:14;;;;;;;;;2.50;2.50;;;;;46.03;14.07;102407.41;5070378;27;45526;-65
2021/06/13 08:48:44;;;;;;;;;3.00;2.00;;;;;45.75;15.09;102415.69;5069650;27;45708;-65
2021/06/13 08:51:10;;;;;;;;;4.00;3.00;;;;;45.97;14.44;102406.00;5069399;27;45440;-65
2021/06/13 08:53:36;;;;;;;;;2.50;2.50;;;;;46.32;14.78;102400.66;5071041;27;46611;-64
2021/06/13 08:56:02;;;;;;;;;3.00;3.00;;;;;46.55;14.32;102402.91;5070346;27;45476;-64
2021/06/13 08:58:27;;;;;;;;;3.00;3.00;;;;;46.87;14.80;102403.00;5066349;27;45959;-63
2021/06/13 09:00:53;;;;;;;;;2.50;2.50;;;;;46.49;13.68;102404.31;5069529;27;45466;-66
2021/06/13 09:03:19;;;;;;;;;2.00;2.00;;;;;46.30;11.28;102403.00;5068936;27;45481;-64
2021/06/13 09:05:45;;;;;;;;;2.00;2.00;;;;;46.10;10.15;102402.03;5069675;27;45389;-63
2021/06/13 09:08:14;;;;;;;;;2.50;1.50;;;;;45.12;13.29;102406.81;5069550;27;45447;-64
2021/06/13 09:10:42;;;;;;;;;4.00;4.00;;;;;44.93;11.74;102401.78;5070109;27;45418;-64
2021/06/13 09:13:13;;;;;;;;;2.00;2.00;;;;;43.91;13.23;102390.03;5071713;27;45858;-64
2021/06/13 09:15:49;;;;;;;;;2.75;2.75;;;;;43.08;13.98;102389.44;5069079;27;45527;-64
2021/06/13 09:18:29;;;;;;;;;3.75;3.75;;;;;43.00;15.39;102383.88;5062831;27;45538;-65
2021/06/13 09:20:57;;;;;;;;;2.50;2.25;;;;;43.01;14.85;102389.13;5077302;27;45479;-65
2021/06/13 09:23:23;;;;;;;;;3.75;2.75;;;;;42.70;15.43;102384.59;5068045;27;46419;-65
2021/06/13 09:25:58;;;;;;;;;2.00;2.00;;;;;41.79;14.89;102375.22;5070919;27;45582;-66
2021/06/13 09:28:23;;;;;;;;;3.00;3.00;;;;;40.65;16.65;102380.50;5071147;27;45455;-64
2021/06/13 09:30:51;;;;;;;;;3.00;3.00;;;;;40.04;16.41;102377.19;5068869;27;45474;-66
2021/06/13 09:33:20;;;;;;;;;3.00;3.00;;;;;39.32;16.51;102392.47;5073461;27;45384;-64
2021/06/13 09:35:48;;;;;;;;;2.25;2.00;;;;;39.04;18.53;102370.31;5068967;27;45535;-65
2021/06/13 09:38:26;;;;;;;;;3.25;2.50;;;;;38.81;18.60;102380.34;5069092;27;45575;-64
2021/06/13 09:40:53;;;;;;;;;2.75;2.75;;;;;38.85;18.87;102375.03;5071777;27;45449;-64
2021/06/13 09:43:20;;;;;;;;;2.00;2.00;;;;;38.60;18.61;102379.88;5068732;27;45629;-65
2021/06/13 09:45:48;;;;;;;;;3.25;2.25;;;;;38.35;18.54;102372.75;5072295;27;45531;-65
2021/06/13 09:48:13;;;;;;;;;2.00;2.00;;;;;37.97;18.94;102382.94;5068410;27;45561;-64
2021/06/13 09:50:41;;;;;;;;;0.75;0.00;;;;;37.58;17.96;102364.69;5071766;27;45607;-66
2021/06/13 09:53:20;;;;;;;;;2.25;2.00;;;;;36.29;18.60;102375.09;5069487;27;47048;-66
2021/06/13 09:55:47;;;;;;;;;3.00;3.00;;;;;35.80;20.57;102370.38;5070102;27;45453;-66
2021/06/13 09:58:14;;;;;;;;;2.25;2.25;;;;;35.67;19.28;102367.13;5070090;27;45632;-64
2021/06/13 10:00:40;;;;;;;;;3.75;3.75;;;;;35.26;20.96;102369.94;5068398;27;45625;-66
2021/06/13 10:03:22;;;;;;;;;3.00;3.00;;;;;35.17;20.56;102368.84;5067922;27;46498;-65
2021/06/13 10:05:58;;;;;;;;;2.75;2.75;;;;;35.24;19.85;102360.31;5062247;27;45500;-65
2021/06/13 10:08:27;;;;;;;;;3.00;3.00;;;;;35.06;21.54;102358.94;5075905;27;45483;-64
2021/06/13 10:10:54;;;;;;;;;2.00;2.00;;;;;35.18;21.45;102359.50;5071175;27;45395;-65
2021/06/13 10:13:20;;;;;;;;;2.25;2.25;;;;;35.40;20.74;102366.63;5068251;27;45763;-64
2021/06/13 10:15:50;;;;;;;;;1.25;1.25;;;;;35.65;20.86;102366.56;5072448;27;45381;-64
2021/06/13 10:18:17;;;;;;;;;2.00;2.00;;;;;35.99;21.14;102363.13;5068495;27;45415;-65
2021/06/13 10:20:43;;;;;;;;;2.75;2.75;;;;;36.24;18.42;102373.19;5069274;27;45788;-64
2021/06/13 10:23:09;;;;;;;;;2.50;1.75;;;;;36.01;20.36;102360.94;5075807;27;46670;-64
2021/06/13 10:25:35;;;;;;;;;2.25;2.00;;;;;36.14;20.57;102352.06;5070904;27;45546;-65
2021/06/13 10:28:00;;;;;;;;;2.00;2.00;;;;;36.38;20.49;102354.94;5068271;27;45538;-66
2021/06/13 10:30:26;;;;;;;;;1.75;1.00;;;;;36.75;20.02;102344.53;5069768;27;45732;-66
2021/06/13 10:32:51;;;;;;;;;3.00;2.25;;;;;37.14;19.18;102349.13;5073092;27;45995;-64
2021/06/13 10:35:17;;;;;;;;;2.00;1.75;;;;;37.35;19.07;102339.53;5072304;27;45491;-64
2021/06/13 10:37:43;;;;;;;;;2.00;2.00;;;;;37.49;19.38;102345.19;5074492;27;45295;-64
2021/06/13 10:40:09;;;;;;;;;2.00;2.00;;;;;37.65;18.20;102348.59;5072023;27;45590;-64
2021/06/13 10:42:38;;;;;;;;;2.25;2.00;;;;;37.68;18.95;102342.50;5071162;27;46692;-65
2021/06/13 10:45:04;;;;;;;;;2.00;2.00;;;;;37.85;19.22;102340.06;5071812;27;45471;-65
2021/06/13 10:47:30;;;;;;;;;1.00;1.00;;;;;38.10;18.38;102345.56;5071969;27;45500;-66
2021/06/13 10:49:55;;;;;;;;;4.25;1.50;;;;;37.80;17.59;102340.13;5075612;27;45872;-66
2021/06/13 10:52:23;;;;;;;;;1.25;0.75;;;;;37.29;18.89;102328.84;5074468;27;45460;-65
2021/06/13 10:54:54;;;;;;;;;2.00;2.00;;;;;37.04;19.85;102322.47;5070668;27;45625;-65
2021/06/13 10:57:19;;;;;;;;;2.25;2.25;;;;;37.17;18.98;102332.84;5071535;27;45392;-64
2021/06/13 10:59:52;;;;;;;;;1.50;1.50;;;;;37.28;18.43;102319.78;5071110;27;45494;-66
2021/06/13 11:02:23;;;;;;;;;2.25;1.50;;;;;37.55;18.98;102316.47;5071137;27;45580;-65
2021/06/13 11:04:54;;;;;;;;;1.25;1.25;;;;;37.70;17.97;102329.22;5073802;27;45459;-64
2021/06/13 11:07:38;;;;;;;;;2.25;2.25;;;;;38.00;18.11;102324.44;5071406;27;45393;-66
2021/06/13 11:10:07;;;;;;;;;3.50;1.75;;;;;38.28;15.59;102317.13;5071488;27;45513;-64
2021/06/13 11:12:59;;;;;;;;;2.00;1.50;;;;;38.40;19.31;102314.72;5070739;27;45485;-65
2021/06/13 11:18:04;;;;;;;;;2.00;2.00;;;;;37.64;17.49;102313.88;5071228;27;45500;-65
2021/06/13 11:23:03;;;;;;;;;0.75;0.75;;;;;37.89;17.98;102312.72;5081767;27;45445;-66
2021/06/13 11:25:30;;;;;;;;;3.00;1.75;;;;;38.40;17.52;102306.44;5072793;27;45578;-64
2021/06/13 11:28:30;;;;;;;;;3.00;1.00;;;;;38.82;17.16;102312.09;5067270;27;45512;-64
2021/06/13 11:31:00;;;;;;;;;1.75;1.75;;;;;38.73;17.11;102306.47;5007922;28;45449;-66